Time;durP1;ratioP1;P1;durP2;ratioP2;P2;SDS_P1;SDS_P2;PMS_P1;PMS_P2;Temp;Humidity;BMP_temperature;BMP_pressure;BME280_temperature;BME280_humidity;BME280_pressure;Samples;Min_cycle;Max_cycle;Signal;HPM_P1;HPM_P2
2021/05/20 00:02:13;;;;;;;18.35;13.10;;;;;;;10.26;100.00;101447.25;5123642;27;20031;-76
2021/05/20 00:04:39;;;;;;;21.95;13.05;;;;;;;10.24;100.00;101437.56;5104698;28;20034;-76
2021/05/20 00:07:04;;;;;;;19.48;12.73;;;;;;;10.23;100.00;101436.69;5122460;28;20031;-76
2021/05/20 00:09:30;;;;;;;18.40;13.13;;;;;;;10.17;100.00;101439.69;5107898;28;20097;-76
2021/05/20 00:11:56;;;;;;;21.85;14.35;;;;;;;10.21;100.00;101453.78;5120415;27;20077;-76
2021/05/20 00:14:23;;;;;;;20.40;13.07;;;;;;;10.15;100.00;101446.88;5117540;28;20023;-76
2021/05/20 00:16:48;;;;;;;19.30;14.00;;;;;;;10.12;100.00;101449.75;5108646;27;20035;-76
2021/05/20 00:19:14;;;;;;;20.10;13.35;;;;;;;10.09;100.00;101455.25;5132013;27;20031;-76
2021/05/20 00:21:39;;;;;;;22.05;13.48;;;;;;;10.06;100.00;101455.44;5110806;27;20023;-76
2021/05/20 00:24:05;;;;;;;16.25;12.23;;;;;;;10.07;100.00;101463.38;5131345;27;20031;-76
2021/05/20 00:26:32;;;;;;;21.92;14.43;;;;;;;10.05;100.00;101459.91;5109296;27;20023;-76
2021/05/20 00:28:58;;;;;;;20.40;14.00;;;;;;;10.06;100.00;101467.00;5122710;27;20084;-76
2021/05/20 00:31:24;;;;;;;20.88;13.98;;;;;;;10.03;100.00;101460.94;5125952;27;20031;-76
2021/05/20 00:33:49;;;;;;;22.45;13.73;;;;;;;10.04;100.00;101463.53;5126509;27;20110;-76
2021/05/20 00:36:15;;;;;;;27.88;15.40;;;;;;;10.04;100.00;101462.66;5095666;27;20114;-76
2021/05/20 00:38:40;;;;;;;18.90;13.57;;;;;;;9.98;100.00;101468.34;5104270;28;20084;-76
2021/05/20 00:41:06;;;;;;;20.52;14.38;;;;;;;10.02;100.00;101472.59;5097645;27;20027;-76
2021/05/20 00:43:31;;;;;;;23.05;14.68;;;;;;;10.01;100.00;101468.16;5114102;27;20067;-76
2021/05/20 00:45:57;;;;;;;25.92;15.40;;;;;;;10.08;100.00;101469.59;5112584;27;20035;-76
2021/05/20 00:48:22;;;;;;;20.48;13.88;;;;;;;10.03;100.00;101477.03;5109611;27;20047;-76
2021/05/20 00:50:48;;;;;;;20.58;14.55;;;;;;;10.04;100.00;101468.03;5094414;27;20034;-76
2021/05/20 00:53:15;;;;;;;21.38;14.95;;;;;;;10.01;100.00;101478.91;5107654;27;20478;-76
2021/05/20 00:55:41;;;;;;;26.92;16.40;;;;;;;10.04;100.00;101474.28;5113758;27;20605;-76
2021/05/20 00:58:08;;;;;;;24.35;16.58;;;;;;;10.06;100.00;101484.94;5125545;27;20027;-76
2021/05/20 01:00:34;;;;;;;25.30;16.63;;;;;;;10.11;100.00;101475.69;5121028;27;20475;-76
2021/05/20 01:03:00;;;;;;;26.08;17.73;;;;;;;10.03;100.00;101472.53;5113044;27;20091;-76
2021/05/20 01:05:26;;;;;;;27.35;18.25;;;;;;;10.01;100.00;101468.16;5126075;27;20063;-76
2021/05/20 01:07:52;;;;;;;25.08;17.67;;;;;;;10.06;100.00;101471.53;5130295;27;20031;-76
2021/05/20 01:10:18;;;;;;;25.40;17.33;;;;;;;10.10;100.00;101467.72;5129770;27;20560;-76
2021/05/20 01:12:44;;;;;;;22.75;16.80;;;;;;;10.10;100.00;101467.72;5110072;27;20177;-76
2021/05/20 01:15:25;;;;;;;23.85;17.50;;;;;;;10.14;100.00;101480.03;5109475;27;20466;-76
2021/05/20 01:18:02;;;;;;;26.02;17.95;;;;;;;10.02;100.00;101480.66;5132429;27;20039;-76
2021/05/20 01:20:36;;;;;;;32.88;19.48;;;;;;;9.98;100.00;101479.94;5129462;27;20037;-77
2021/05/20 01:23:07;;;;;;;28.52;18.45;;;;;;;10.09;100.00;101482.94;5110037;27;20042;-76
2021/05/20 01:25:35;;;;;;;27.48;18.08;;;;;;;10.05;100.00;101485.88;5127565;27;20027;-76
2021/05/20 01:28:04;;;;;;;30.65;19.80;;;;;;;10.05;100.00;101488.56;5107992;27;20445;-76
2021/05/20 01:30:35;;;;;;;29.52;19.73;;;;;;;9.96;100.00;101480.94;5094038;27;20026;-76
2021/05/20 01:33:00;;;;;;;27.48;18.83;;;;;;;9.99;100.00;101480.81;5108541;27;20070;-76
2021/05/20 01:35:26;;;;;;;31.15;18.50;;;;;;;9.93;100.00;101482.00;5126974;27;20039;-76
2021/05/20 01:38:10;;;;;;;28.73;19.02;;;;;;;9.88;100.00;101477.75;5129624;27;20083;-77
2021/05/20 01:40:36;;;;;;;31.05;19.73;;;;;;;9.85;100.00;101485.97;5108931;27;20058;-77
2021/05/20 01:43:01;;;;;;;31.10;20.13;;;;;;;9.84;100.00;101487.78;5107388;27;20483;-76
2021/05/20 01:45:27;;;;;;;30.20;19.65;;;;;;;9.78;100.00;101488.09;5099921;27;20680;-76
2021/05/20 01:47:52;;;;;;;34.53;20.75;;;;;;;9.81;100.00;101487.09;5115337;27;20031;-76
2021/05/20 01:50:21;;;;;;;36.17;19.80;;;;;;;9.77;100.00;101496.19;5121991;27;20510;-76
2021/05/20 01:52:46;;;;;;;32.70;21.38;;;;;;;9.72;100.00;101499.09;5109974;27;20070;-76
2021/05/20 01:55:12;;;;;;;31.63;20.05;;;;;;;9.68;100.00;101497.53;5126805;27;20058;-76
2021/05/20 01:57:37;;;;;;;34.45;21.00;;;;;;;9.71;100.00;101500.91;5119938;27;20019;-76
2021/05/20 02:00:04;;;;;;;33.25;20.52;;;;;;;9.61;100.00;101501.44;5108481;27;20036;-76
2021/05/20 02:02:30;;;;;;;32.10;20.08;;;;;;;9.58;100.00;101497.09;5110458;27;20027;-76
2021/05/20 02:04:55;;;;;;;31.33;20.85;;;;;;;9.56;100.00;101499.00;5109964;27;20038;-76
2021/05/20 02:07:21;;;;;;;33.97;21.08;;;;;;;9.57;100.00;101489.09;5109745;27;20035;-76
2021/05/20 02:09:46;;;;;;;35.88;21.30;;;;;;;9.52;100.00;101492.03;5110825;27;20110;-76
2021/05/20 02:12:11;;;;;;;32.05;21.67;;;;;;;9.50;100.00;101499.28;5123388;27;20032;-76
2021/05/20 02:14:37;;;;;;;35.10;21.63;;;;;;;9.48;100.00;101501.16;5126575;27;20529;-76
2021/05/20 02:17:02;;;;;;;34.00;22.42;;;;;;;9.56;100.00;101500.81;5125067;27;20051;-76
2021/05/20 02:19:27;;;;;;;36.17;23.23;;;;;;;9.55;100.00;101501.75;5105478;27;20045;-76
2021/05/20 02:21:53;;;;;;;42.75;24.10;;;;;;;9.47;100.00;101502.09;5108728;27;20091;-76
2021/05/20 02:24:18;;;;;;;39.38;22.80;;;;;;;9.47;100.00;101499.41;5119344;27;20103;-76
2021/05/20 02:26:44;;;;;;;38.97;24.17;;;;;;;9.42;100.00;101496.09;5109644;27;20029;-76
2021/05/20 02:29:09;;;;;;;38.95;22.45;;;;;;;9.40;100.00;101495.28;5126714;27;20425;-76
2021/05/20 02:31:35;;;;;;;38.72;23.33;;;;;;;9.35;100.00;101508.03;5106567;27;20607;-76
2021/05/20 02:34:00;;;;;;;42.03;24.80;;;;;;;9.31;100.00;101509.13;5128440;27;20027;-76
2021/05/20 02:36:26;;;;;;;48.03;24.80;;;;;;;9.31;100.00;101509.13;5125572;27;20145;-76
2021/05/20 02:38:51;;;;;;;40.90;24.13;;;;;;;9.25;100.00;101506.72;5119746;27;20024;-76
2021/05/20 02:41:17;;;;;;;46.85;25.83;;;;;;;9.29;100.00;101516.34;5109921;27;20511;-76
2021/05/20 02:43:43;;;;;;;43.42;26.13;;;;;;;9.28;100.00;101520.84;5109625;27;20392;-76
2021/05/20 02:46:08;;;;;;;48.92;27.55;;;;;;;9.29;100.00;101527.94;5125320;27;20019;-76
2021/05/20 02:48:34;;;;;;;43.00;25.95;;;;;;;9.20;100.00;101524.78;5105527;27;20031;-76
2021/05/20 02:50:59;;;;;;;47.17;27.33;;;;;;;9.25;100.00;101530.84;5107925;27;20479;-76
2021/05/20 02:53:25;;;;;;;49.78;27.50;;;;;;;9.20;100.00;101519.44;5121282;27;20059;-77
2021/05/20 02:55:50;;;;;;;50.13;27.90;;;;;;;9.12;100.00;101525.16;5107193;27;20080;-76
2021/05/20 02:58:19;;;;;;;51.17;29.40;;;;;;;9.09;100.00;101529.78;5104532;27;20034;-76
2021/05/20 03:00:47;;;;;;;50.20;28.52;;;;;;;9.08;100.00;101520.00;5119558;27;20034;-76
2021/05/20 03:03:14;;;;;;;56.78;30.48;;;;;;;9.06;100.00;101520.09;5119932;27;20064;-76
2021/05/20 03:05:39;;;;;;;57.13;29.63;;;;;;;9.01;100.00;101523.91;5112484;27;20856;-76
2021/05/20 03:08:04;;;;;;;59.50;29.27;;;;;;;9.03;100.00;101530.94;5107727;27;20035;-76
2021/05/20 03:10:30;;;;;;;57.85;32.25;;;;;;;9.04;100.00;101526.44;5108359;27;20060;-76
2021/05/20 03:12:56;;;;;;;63.03;30.95;;;;;;;8.98;100.00;101532.06;5110160;27;20042;-76
2021/05/20 03:15:21;;;;;;;60.67;32.47;;;;;;;8.92;100.00;101539.44;5093190;27;20394;-76
2021/05/20 03:17:47;;;;;;;59.17;31.13;;;;;;;8.91;100.00;101532.34;5124523;27;20081;-76
2021/05/20 03:20:14;;;;;;;57.55;30.33;;;;;;;8.90;100.00;101535.09;5107178;27;20031;-76
2021/05/20 03:22:40;;;;;;;54.45;30.55;;;;;;;8.88;100.00;101531.63;5124820;27;20119;-76
2021/05/20 03:25:06;;;;;;;48.55;26.50;;;;;;;8.86;100.00;101528.13;5107791;28;20164;-76
2021/05/20 03:27:32;;;;;;;58.30;30.40;;;;;;;8.85;100.00;101532.63;5108220;27;20680;-76
2021/05/20 03:29:58;;;;;;;52.28;28.52;;;;;;;8.85;100.00;101531.75;5123736;27;20570;-76
2021/05/20 03:32:23;;;;;;;52.78;29.52;;;;;;;8.84;100.00;101535.34;5122872;27;20050;-76
2021/05/20 03:34:48;;;;;;;49.28;27.08;;;;;;;8.81;100.00;101533.72;5108842;28;20059;-76
2021/05/20 03:37:14;;;;;;;54.38;29.02;;;;;;;8.82;100.00;101537.25;5091991;28;20038;-76
2021/05/20 03:39:39;;;;;;;57.22;32.33;;;;;;;8.79;100.00;101540.94;5113346;28;20173;-76
2021/05/20 03:42:05;;;;;;;53.00;29.77;;;;;;;8.76;100.00;101534.84;5106854;28;20019;-76
2021/05/20 03:44:31;;;;;;;47.20;27.50;;;;;;;8.75;100.00;101531.28;5127949;27;20467;-77
2021/05/20 03:46:56;;;;;;;51.22;29.30;;;;;;;8.75;100.00;101536.66;5106727;28;20039;-76
2021/05/20 03:49:22;;;;;;;52.47;26.98;;;;;;;8.75;100.00;101541.13;5122334;28;20051;-76
2021/05/20 03:51:47;;;;;;;50.30;26.52;;;;;;;8.75;100.00;101535.78;5124869;27;20088;-76
2021/05/20 03:54:13;;;;;;;48.83;28.05;;;;;;;8.73;100.00;101543.88;5089734;27;20031;-77
2021/05/20 03:56:38;;;;;;;50.97;29.20;;;;;;;8.72;100.00;101547.47;5109079;27;20031;-76
2021/05/20 03:59:04;;;;;;;54.47;30.48;;;;;;;8.70;100.00;101545.81;5112982;27;20076;-76
2021/05/20 04:01:29;;;;;;;59.92;32.75;;;;;;;8.69;100.00;101552.97;5127978;27;20120;-76
2021/05/20 04:03:55;;;;;;;56.08;31.50;;;;;;;8.69;100.00;101552.97;5112504;27;20564;-76
2021/05/20 04:06:20;;;;;;;57.45;32.40;;;;;;;8.69;100.00;101555.66;5130526;27;20027;-76
2021/05/20 04:08:45;;;;;;;61.92;31.92;;;;;;;8.69;100.00;101557.47;5126749;27;20035;-76
2021/05/20 04:11:11;;;;;;;66.95;35.05;;;;;;;8.72;100.00;101560.84;5123347;27;20368;-77
2021/05/20 04:13:38;;;;;;;62.95;35.15;;;;;;;8.73;100.00;101554.56;5120912;27;21886;-76
2021/05/20 04:16:06;;;;;;;71.97;37.17;;;;;;;8.78;100.00;101560.59;5087364;27;20071;-76
2021/05/20 04:18:32;;;;;;;77.72;37.30;;;;;;;8.87;100.00;101578.94;5128427;27;20037;-76
2021/05/20 04:20:58;;;;;;;84.63;38.92;;;;;;;8.86;100.00;101573.66;5116220;27;20031;-75
2021/05/20 04:23:24;;;;;;;93.55;40.90;;;;;;;8.97;100.00;101567.81;5130516;27;20048;-76
2021/05/20 04:25:50;;;;;;;92.43;42.00;;;;;;;8.97;100.00;101568.69;5125417;27;20080;-76
2021/05/20 04:28:17;;;;;;;103.80;45.92;;;;;;;8.93;100.00;101565.28;5109472;27;20027;-76
2021/05/20 04:30:43;;;;;;;101.10;44.30;;;;;;;8.93;100.00;101573.31;5107596;27;20039;-76
2021/05/20 04:33:09;;;;;;;93.50;42.15;;;;;;;8.89;100.00;101571.69;5129701;27;20029;-76
2021/05/20 04:35:35;;;;;;;98.07;42.97;;;;;;;8.99;100.00;101582.03;5132873;27;20023;-76
2021/05/20 04:38:05;;;;;;;102.28;44.13;;;;;;;8.95;100.00;101577.75;5107367;27;20031;-76
2021/05/20 04:40:31;;;;;;;106.78;45.28;;;;;;;8.95;100.00;101567.88;5125439;27;20031;-76
2021/05/20 04:42:57;;;;;;;110.47;46.33;;;;;;;8.95;100.00;101573.22;5109696;27;20046;-75
2021/05/20 04:45:22;;;;;;;111.38;44.25;;;;;;;9.03;100.00;101570.22;5127769;27;20058;-75
2021/05/20 04:47:48;;;;;;;122.22;46.55;;;;;;;9.09;100.00;101575.31;5112010;27;20038;-76
2021/05/20 04:50:15;;;;;;;120.05;45.22;;;;;;;9.16;100.00;101579.47;5130862;27;20402;-76
2021/05/20 04:52:42;;;;;;;120.03;47.92;;;;;;;9.20;100.00;101570.34;5116401;27;20083;-76
2021/05/20 04:55:09;;;;;;;118.20;45.22;;;;;;;9.25;100.00;101573.69;5101090;27;20041;-76
2021/05/20 04:57:35;;;;;;;118.47;45.72;;;;;;;9.22;100.00;101580.06;5123140;27;20035;-76
2021/05/20 05:00:00;;;;;;;130.63;48.08;;;;;;;9.24;100.00;101585.34;5125334;27;20080;-76
2021/05/20 05:02:27;;;;;;;122.72;45.30;;;;;;;9.29;100.00;101580.66;5111642;27;20027;-76
2021/05/20 05:04:53;;;;;;;120.10;45.05;;;;;;;9.27;100.00;101590.56;5113166;27;20031;-76
2021/05/20 05:07:18;;;;;;;122.78;47.13;;;;;;;9.27;100.00;101594.09;5126883;27;20482;-76
2021/05/20 05:09:43;;;;;;;123.68;45.22;;;;;;;9.34;100.00;101589.34;5132281;27;20509;-76
2021/05/20 05:12:09;;;;;;;126.60;47.75;;;;;;;9.39;100.00;101583.75;5129270;27;20459;-76
2021/05/20 05:14:34;;;;;;;119.82;46.80;;;;;;;9.41;100.00;101587.25;5106238;27;20436;-76
2021/05/20 05:17:00;;;;;;;117.75;43.88;;;;;;;9.52;100.00;101588.50;5105316;27;20038;-76
2021/05/20 05:19:25;;;;;;;117.65;44.67;;;;;;;9.47;100.00;101593.22;5105169;28;20437;-76
2021/05/20 05:21:51;;;;;;;110.38;42.85;;;;;;;9.50;100.00;101590.41;5127010;27;20027;-76
2021/05/20 05:24:16;;;;;;;120.13;42.63;;;;;;;9.53;100.00;101590.25;5110013;27;20073;-76
2021/05/20 05:26:42;;;;;;;130.43;46.53;;;;;;;9.59;100.00;101592.66;5096568;27;20483;-77
2021/05/20 05:29:08;;;;;;;127.05;43.80;;;;;;;9.58;100.00;101588.22;5125638;27;20400;-76
2021/05/20 05:31:34;;;;;;;125.93;46.33;;;;;;;9.68;100.00;101600.28;5126203;27;20643;-76
2021/05/20 05:33:59;;;;;;;133.10;46.90;;;;;;;9.65;100.00;101592.34;5106436;27;20459;-76
2021/05/20 05:36:25;;;;;;;121.60;43.03;;;;;;;9.72;100.00;101593.81;5125721;27;20092;-75
2021/05/20 05:38:51;;;;;;;116.65;42.55;;;;;;;9.79;100.00;101596.22;5106768;27;20503;-75
2021/05/20 05:41:17;;;;;;;115.53;42.88;;;;;;;9.73;100.00;101592.88;5128850;27;20055;-76
2021/05/20 05:43:42;;;;;;;118.65;40.10;;;;;;;9.74;100.00;101589.25;5128881;27;20057;-75
2021/05/20 05:46:08;;;;;;;112.85;41.33;;;;;;;9.73;100.00;101584.84;5128710;27;20023;-76
2021/05/20 05:48:34;;;;;;;126.93;41.47;;;;;;;9.81;100.00;101594.34;5105020;27;20034;-77
2021/05/20 05:50:59;;;;;;;120.45;40.05;;;;;;;9.87;100.00;101594.91;5109518;27;20065;-76
2021/05/20 05:53:26;;;;;;;110.72;40.70;;;;;;;9.87;100.00;101599.41;5103233;27;20030;-76
2021/05/20 05:55:51;;;;;;;108.40;40.97;;;;;;;9.91;100.00;101591.13;5099267;27;20062;-76
2021/05/20 05:58:18;;;;;;;110.47;42.88;;;;;;;9.95;100.00;101592.72;5127418;27;20062;-76
2021/05/20 06:00:44;;;;;;;110.05;38.58;;;;;;;10.00;100.00;101589.81;5095103;27;20043;-76
2021/05/20 06:03:10;;;;;;;110.05;40.72;;;;;;;10.02;100.00;101582.56;5124285;27;20102;-76
2021/05/20 06:05:36;;;;;;;110.20;43.75;;;;;;;10.12;100.00;101591.94;5122354;27;20122;-76
2021/05/20 06:08:01;;;;;;;113.45;45.20;;;;;;;10.07;100.00;101589.44;5130094;27;20038;-76
2021/05/20 06:10:26;;;;;;;105.85;42.28;;;;;;;10.13;100.00;101596.31;5109713;27;20558;-76
2021/05/20 06:12:52;;;;;;;103.15;41.35;;;;;;;10.25;100.00;101597.56;5107698;28;20027;-76
2021/05/20 06:15:17;;;;;;;98.55;39.03;;;;;;;10.22;100.00;101590.56;5114879;27;20505;-75
2021/05/20 06:17:43;;;;;;;86.70;36.35;;;;;;;10.10;100.00;101600.03;5125304;27;20034;-76
2021/05/20 06:20:09;;;;;;;92.85;38.97;;;;;;;10.18;100.00;101599.72;5123670;27;20027;-75
2021/05/20 06:22:36;;;;;;;91.90;37.25;;;;;;;10.18;100.00;101604.22;5103145;28;20468;-76
2021/05/20 06:25:04;;;;;;;93.72;35.88;;;;;;;10.22;100.00;101603.09;5122396;27;20543;-75
2021/05/20 06:27:29;;;;;;;97.30;36.63;;;;;;;10.20;100.00;101607.66;5121203;27;20019;-76
2021/05/20 06:29:55;;;;;;;101.30;37.35;;;;;;;10.17;100.00;101610.50;5125904;27;20060;-75
2021/05/20 06:32:21;;;;;;;92.43;34.90;;;;;;;10.18;100.00;101614.94;5123578;27;20040;-76
2021/05/20 06:34:47;;;;;;;110.88;38.92;;;;;;;10.30;100.00;101614.34;5125640;27;20027;-75
2021/05/20 06:37:13;;;;;;;106.93;39.00;;;;;;;10.35;100.00;101617.66;5123436;27;20058;-76
2021/05/20 06:39:39;;;;;;;109.07;38.00;;;;;;;10.29;100.00;101616.16;5127283;27;20038;-77
2021/05/20 06:42:08;;;;;;;108.43;40.15;;;;;;;10.28;100.00;101610.84;5103678;27;20036;-76
2021/05/20 06:44:33;;;;;;;111.07;40.83;;;;;;;10.35;100.00;101621.22;5121961;27;20071;-76
2021/05/20 06:46:59;;;;;;;112.78;39.63;;;;;;;10.39;100.00;101614.75;5132930;27;20070;-76
2021/05/20 06:49:24;;;;;;;107.38;40.75;;;;;;;10.65;100.00;101623.31;5108085;27;20031;-76
2021/05/20 06:51:49;;;;;;;95.97;37.83;;;;;;;10.67;100.00;101616.06;5126646;27;20088;-76
2021/05/20 06:54:15;;;;;;;92.32;38.97;;;;;;;10.75;100.00;101622.78;5108961;27;20027;-76
2021/05/20 06:56:42;;;;;;;100.28;40.70;;;;;;;10.74;100.00;101618.34;5100210;28;20019;-76
2021/05/20 07:01:51;;;;;;;89.97;36.67;;;;;;;10.84;100.00;101610.69;5110132;27;20048;-76
2021/05/20 07:04:17;;;;;;;89.55;38.20;;;;;;;10.89;100.00;101619.38;5115516;27;20051;-76
2021/05/20 07:06:43;;;;;;;88.95;38.35;;;;;;;11.10;100.00;101623.66;5126365;27;20031;-76
2021/05/20 07:09:08;;;;;;;86.60;37.83;;;;;;;11.21;100.00;101623.97;5125989;27;20026;-75
2021/05/20 07:11:34;;;;;;;78.70;35.35;;;;;;;11.32;100.00;101626.94;5109105;27;20086;-76
2021/05/20 07:13:59;;;;;;;85.82;37.78;;;;;;;11.47;100.00;101632.47;5100818;27;20088;-76
2021/05/20 07:16:25;;;;;;;79.03;36.00;;;;;;;11.48;100.00;101629.69;5132782;27;20035;-76
2021/05/20 07:18:51;;;;;;;84.15;38.65;;;;;;;11.49;100.00;101627.88;5101401;27;20750;-75
2021/05/20 07:21:16;;;;;;;76.55;35.97;;;;;;;11.52;100.00;101635.78;5121846;27;20091;-76
2021/05/20 07:23:42;;;;;;;74.07;34.63;;;;;;;11.53;100.00;101641.09;5118808;27;20022;-76
2021/05/20 07:26:07;;;;;;;78.63;37.50;;;;;;;11.59;100.00;101634.50;5093105;27;20108;-76
2021/05/20 07:28:33;;;;;;;77.43;35.80;;;;;;;11.70;100.00;101629.41;5105279;27;20035;-75
2021/05/20 07:30:59;;;;;;;77.22;36.72;;;;;;;11.82;100.00;101630.59;5119677;27;20035;-76
2021/05/20 07:33:25;;;;;;;75.75;34.90;;;;;;;11.74;100.00;101629.19;5108417;27;20810;-76
2021/05/20 07:35:51;;;;;;;76.30;36.95;;;;;;;11.84;100.00;101636.75;5120544;28;20081;-77
2021/05/20 07:38:16;;;;;;;81.47;36.95;;;;;;;11.83;100.00;101630.50;5113205;28;20045;-76
2021/05/20 07:40:42;;;;;;;74.65;36.72;;;;;;;11.97;100.00;101630.59;5110792;28;20031;-76
2021/05/20 07:43:07;;;;;;;72.30;36.60;;;;;;;11.97;100.00;101637.81;5123455;28;20030;-76
2021/05/20 07:45:33;;;;;;;66.03;33.90;;;;;;;12.02;100.00;101642.00;5104099;28;20027;-76
2021/05/20 07:47:58;;;;;;;64.68;32.33;;;;;;;12.25;100.00;101647.91;5125319;27;20035;-76
2021/05/20 07:50:24;;;;;;;60.33;31.25;;;;;;;12.19;100.00;101648.25;5126243;27;20452;-76
2021/05/20 07:52:49;;;;;;;57.55;30.73;;;;;;;12.15;100.00;101652.94;5125806;28;20031;-77
2021/05/20 07:55:15;;;;;;;57.17;29.73;;;;;;;12.22;100.00;101653.47;5128082;27;20034;-76
2021/05/20 07:57:42;;;;;;;56.10;30.05;;;;;;;12.36;100.00;101656.22;5130051;27;20026;-76
2021/05/20 08:00:09;;;;;;;50.15;27.27;;;;;;;12.34;100.00;101656.34;5121007;27;20038;-77
2021/05/20 08:03:05;;;;;;;50.75;27.00;;;;;;;12.59;100.00;101663.00;5109978;28;20122;-76
2021/05/20 08:05:43;;;;;;;47.25;27.08;;;;;;;12.73;100.00;101650.47;5131371;27;20055;-76
2021/05/20 08:10:50;;;;;;;39.10;22.92;;;;;;;13.26;97.50;101650.00;5122345;27;20039;-77
2021/05/20 08:13:16;;;;;;;38.20;22.08;;;;;;;13.51;96.92;101652.06;5121144;28;20089;-76
2021/05/20 08:15:42;;;;;;;38.80;22.15;;;;;;;13.94;95.86;101650.25;5122122;27;20621;-77
2021/05/20 08:18:07;;;;;;;33.10;20.63;;;;;;;13.98;93.97;101657.19;5103382;27;20549;-77
2021/05/20 08:20:33;;;;;;;29.73;19.02;;;;;;;13.87;92.49;101651.59;5106937;28;20399;-77
2021/05/20 08:22:59;;;;;;;28.48;17.70;;;;;;;14.26;92.03;101652.72;5120147;27;20038;-77
2021/05/20 08:25:25;;;;;;;30.42;17.92;;;;;;;15.08;86.58;101647.22;5126333;28;20073;-78
2021/05/20 08:27:50;;;;;;;32.03;16.60;;;;;;;15.34;83.37;101647.16;5126557;27;20615;-77
2021/05/20 08:30:18;;;;;;;27.58;18.13;;;;;;;15.20;84.85;101646.38;5107390;28;20454;-76
2021/05/20 08:32:46;;;;;;;30.75;17.25;;;;;;;14.88;85.42;101648.56;5103539;28;20061;-77
2021/05/20 08:35:11;;;;;;;26.20;16.08;;;;;;;14.52;85.98;101644.66;5128823;27;20752;-76
2021/05/20 08:37:38;;;;;;;26.35;16.27;;;;;;;14.35;86.18;101646.69;5107109;27;20057;-76
2021/05/20 08:40:06;;;;;;;25.17;15.90;;;;;;;14.59;86.42;101645.13;5130635;27;20023;-78
2021/05/20 08:42:32;;;;;;;26.33;16.48;;;;;;;15.33;83.20;101645.44;5133781;27;20030;-76
2021/05/20 08:45:07;;;;;;;23.10;13.90;;;;;;;16.26;79.32;101637.91;5107673;27;20118;-77
2021/05/20 08:47:32;;;;;;;23.55;13.43;;;;;;;16.68;74.28;101640.16;5125298;27;20127;-76
2021/05/20 08:49:58;;;;;;;29.05;16.10;;;;;;;16.27;73.94;101629.69;5132445;27;20076;-77
2021/05/20 08:52:24;;;;;;;25.70;16.48;;;;;;;16.01;76.93;101636.13;5092772;28;20028;-77
2021/05/20 08:54:49;;;;;;;23.83;16.17;;;;;;;16.22;79.72;101625.56;5130683;27;20031;-77
2021/05/20 08:57:15;;;;;;;31.65;17.35;;;;;;;17.11;75.61;101626.03;5107264;27;20503;-77
2021/05/20 08:59:40;;;;;;;22.25;14.35;;;;;;;17.56;71.00;101638.75;5111586;27;20087;-77
2021/05/20 09:02:06;;;;;;;21.38;15.27;;;;;;;17.72;67.67;101628.41;5100316;27;20037;-78
2021/05/20 09:04:31;;;;;;;24.02;15.20;;;;;;;17.52;68.14;101626.41;5090438;27;20058;-77
2021/05/20 09:07:05;;;;;;;25.52;16.70;;;;;;;17.42;68.20;101619.97;5110437;27;20027;-77
2021/05/20 09:09:35;;;;;;;23.20;15.45;;;;;;;17.59;65.04;101621.38;5111517;27;20156;-78
2021/05/20 09:12:00;;;;;;;23.38;15.60;;;;;;;17.28;71.19;101618.31;5128465;27;20035;-78
2021/05/20 09:14:40;;;;;;;25.88;16.90;;;;;;;17.95;68.86;101621.16;5112126;27;20602;-78
2021/05/20 09:17:14;;;;;;;25.65;15.57;;;;;;;18.52;66.46;101612.75;5125008;27;20031;-78
2021/05/20 09:19:42;;;;;;;23.38;15.15;;;;;;;18.77;61.83;101610.72;5123442;27;20513;-77
2021/05/20 09:22:11;;;;;;;20.95;14.35;;;;;;;18.56;63.59;101606.13;5128330;27;20024;-77
2021/05/20 09:24:51;;;;;;;22.98;15.05;;;;;;;18.14;67.85;101593.34;5110804;27;20449;-78
2021/05/20 09:27:22;;;;;;;25.60;15.90;;;;;;;17.92;65.57;101602.38;5128280;27;20094;-78
2021/05/20 09:30:06;;;;;;;24.08;15.27;;;;;;;17.54;69.08;101602.69;5109753;27;20039;-79
2021/05/20 09:32:36;;;;;;;25.40;16.23;;;;;;;17.54;68.92;101597.25;5131567;27;20078;-77
2021/05/20 09:35:03;;;;;;;23.98;16.10;;;;;;;17.31;69.93;101600.94;5129374;27;20027;-76
2021/05/20 09:37:28;;;;;;;24.33;15.55;;;;;;;17.64;70.82;101598.31;5126488;27;20375;-77
2021/05/20 09:39:59;;;;;;;21.08;14.10;;;;;;;17.27;68.99;101592.19;5127895;27;20068;-78
2021/05/20 09:42:24;;;;;;;26.55;16.33;;;;;;;17.14;71.00;101591.41;5110757;27;20391;-77
2021/05/20 09:44:50;;;;;;;22.27;15.63;;;;;;;17.08;71.32;101589.19;5120555;27;20035;-78
2021/05/20 09:47:15;;;;;;;23.80;15.32;;;;;;;16.95;71.45;101593.81;5105070;27;20408;-78
2021/05/20 09:49:56;;;;;;;21.80;12.88;;;;;;;17.56;67.22;101584.44;5102794;27;20062;-78
2021/05/20 09:52:23;;;;;;;18.17;12.13;;;;;;;18.12;63.92;101582.59;5106578;27;20031;-77
2021/05/20 09:54:49;;;;;;;17.83;11.98;;;;;;;17.91;62.56;101592.50;5128407;27;20019;-78
2021/05/20 09:57:44;;;;;;;18.48;11.23;;;;;;;18.63;61.48;101592.03;5108959;27;20031;-78
2021/05/20 10:00:17;;;;;;;20.88;12.43;;;;;;;18.93;63.06;101586.69;5091645;27;20039;-79
2021/05/20 10:02:45;;;;;;;21.60;12.82;;;;;;;18.78;59.58;101587.97;5109692;27;20176;-78
2021/05/20 10:05:26;;;;;;;25.10;14.70;;;;;;;18.48;62.41;101584.13;5122005;27;20023;-78
2021/05/20 10:07:52;;;;;;;24.60;13.15;;;;;;;18.14;63.32;101586.06;5111211;27;20033;-78
2021/05/20 10:10:18;;;;;;;22.67;12.60;;;;;;;17.86;65.70;101585.72;5106689;27;20039;-79
2021/05/20 10:12:45;;;;;;;21.20;13.77;;;;;;;17.70;67.35;101586.09;5110831;27;20027;-79
2021/05/20 10:15:14;;;;;;;20.90;13.10;;;;;;;18.36;66.30;101579.69;5129360;27;20027;-78
2021/05/20 10:17:40;;;;;;;19.58;12.38;;;;;;;18.72;62.93;101574.91;5103626;27;20049;-79
2021/05/20 10:20:07;;;;;;;18.90;12.55;;;;;;;19.31;62.19;101570.63;5102634;27;20035;-79
2021/05/20 10:22:34;;;;;;;17.80;11.95;;;;;;;19.51;61.59;101574.34;5107976;27;20034;-81
2021/05/20 10:24:59;;;;;;;15.27;10.63;;;;;;;19.51;58.47;101570.75;5107264;27;20038;-79
2021/05/20 10:27:25;;;;;;;15.30;10.18;;;;;;;19.61;52.88;101575.25;5087934;27;20027;-79
2021/05/20 10:29:51;;;;;;;12.48;8.23;;;;;;;19.86;60.65;101563.03;5127020;27;20034;-78
2021/05/20 10:32:18;;;;;;;11.88;8.57;;;;;;;19.61;57.78;101563.50;5083902;27;20031;-77
2021/05/20 10:35:15;;;;;;;8.95;6.32;;;;;;;19.24;52.57;101560.41;5109575;27;20031;-77
2021/05/20 10:37:43;;;;;;;11.55;7.38;;;;;;;19.46;55.58;101545.78;5088742;27;20050;-78
2021/05/20 10:40:27;;;;;;;11.18;6.95;;;;;;;19.68;55.51;101545.63;5104381;27;20468;-77
2021/05/20 10:43:10;;;;;;;11.77;7.68;;;;;;;19.62;52.22;101540.72;5124291;27;20023;-77
2021/05/20 10:45:38;;;;;;;15.40;8.50;;;;;;;19.71;53.17;101548.06;5091789;27;20477;-79
2021/05/20 10:48:04;;;;;;;17.42;9.13;;;;;;;19.68;50.41;101535.59;5083832;28;20274;-79
2021/05/20 10:50:58;;;;;;;13.50;8.35;;;;;;;19.90;54.00;101530.91;5124222;27;20118;-79
2021/05/20 10:53:39;;;;;;;13.38;7.40;;;;;;;20.19;54.00;101531.81;5119042;27;20031;-77
2021/05/20 10:56:05;;;;;;;11.95;8.07;;;;;;;20.55;52.85;101533.06;5095073;27;20395;-79
2021/05/20 10:58:35;;;;;;;11.13;7.72;;;;;;;20.23;52.08;101532.44;5109506;27;20501;-77
2021/05/20 11:01:01;;;;;;;12.35;7.30;;;;;;;20.40;52.98;101529.03;5101514;27;20038;-78
2021/05/20 11:04:02;;;;;;;11.45;5.97;;;;;;;20.28;50.15;101527.41;5102308;27;20063;-78
2021/05/20 11:06:37;;;;;;;9.55;6.10;;;;;;;20.31;48.87;101524.38;5077640;27;20043;-77
2021/05/20 11:09:14;;;;;;;8.50;6.25;;;;;;;20.34;49.21;101516.84;5127646;27;20505;-79
2021/05/20 11:11:39;;;;;;;9.95;6.05;;;;;;;20.14;51.05;101513.19;5082129;27;20034;-79
2021/05/20 11:14:05;;;;;;;9.57;5.85;;;;;;;20.52;48.90;101519.72;5106314;27;20039;-77